sensor_id;sensor_type;location;lat;lon;timestamp;temperature;humidity
39931;DHT22;26635;-35.248;149.138;2023-09-19T00:01:25;23.10;57.40
39931;DHT22;26635;-35.248;149.138;2023-09-19T00:03:56;23.20;57.00
39931;DHT22;26635;-35.248;149.138;2023-09-19T00:06:31;23.20;58.00
39931;DHT22;26635;-35.248;149.138;2023-09-19T00:09:03;23.40;58.10
39931;DHT22;26635;-35.248;149.138;2023-09-19T00:11:36;23.50;57.20
39931;DHT22;26635;-35.248;149.138;2023-09-19T00:14:13;23.60;58.10
39931;DHT22;26635;-35.248;149.138;2023-09-19T00:16:46;23.70;56.90
39931;DHT22;26635;-35.248;149.138;2023-09-19T00:19:19;23.80;56.00
39931;DHT22;26635;-35.248;149.138;2023-09-19T00:21:49;23.90;56.50
39931;DHT22;26635;-35.248;149.138;2023-09-19T00:24:20;24.00;55.90
39931;DHT22;26635;-35.248;149.138;2023-09-19T00:26:52;24.10;56.40
39931;DHT22;26635;-35.248;149.138;2023-09-19T00:29:23;24.30;54.80
39931;DHT22;26635;-35.248;149.138;2023-09-19T00:31:55;24.30;55.80
39931;DHT22;26635;-35.248;149.138;2023-09-19T00:34:26;24.50;55.60
39931;DHT22;26635;-35.248;149.138;2023-09-19T00:36:58;24.60;54.20
39931;DHT22;26635;-35.248;149.138;2023-09-19T00:39:29;24.60;54.90
39931;DHT22;26635;-35.248;149.138;2023-09-19T00:42:01;24.70;55.00
39931;DHT22;26635;-35.248;149.138;2023-09-19T00:44:35;24.70;54.30
39931;DHT22;26635;-35.248;149.138;2023-09-19T00:47:06;24.80;54.70
39931;DHT22;26635;-35.248;149.138;2023-09-19T00:49:39;24.80;54.00
39931;DHT22;26635;-35.248;149.138;2023-09-19T00:52:10;24.90;54.40
39931;DHT22;26635;-35.248;149.138;2023-09-19T00:54:42;25.00;54.70
39931;DHT22;26635;-35.248;149.138;2023-09-19T00:57:13;25.10;53.90
39931;DHT22;26635;-35.248;149.138;2023-09-19T00:59:44;25.20;54.40
39931;DHT22;26635;-35.248;149.138;2023-09-19T01:02:15;25.30;54.50
39931;DHT22;26635;-35.248;149.138;2023-09-19T01:04:46;25.30;54.40
39931;DHT22;26635;-35.248;149.138;2023-09-19T01:07:19;25.40;53.40
39931;DHT22;26635;-35.248;149.138;2023-09-19T01:09:51;25.50;53.90
39931;DHT22;26635;-35.248;149.138;2023-09-19T01:12:33;25.60;53.70
39931;DHT22;26635;-35.248;149.138;2023-09-19T01:16:11;25.70;54.50
39931;DHT22;26635;-35.248;149.138;2023-09-19T01:29:12;25.90;54.00
39931;DHT22;26635;-35.248;149.138;2023-09-19T01:31:52;26.00;53.50
39931;DHT22;26635;-35.248;149.138;2023-09-19T01:34:25;26.10;52.90
39931;DHT22;26635;-35.248;149.138;2023-09-19T01:36:56;26.10;52.70
39931;DHT22;26635;-35.248;149.138;2023-09-19T01:39:31;26.20;53.90
39931;DHT22;26635;-35.248;149.138;2023-09-19T01:42:28;26.30;53.70
39931;DHT22;26635;-35.248;149.138;2023-09-19T01:45:32;26.40;54.20
39931;DHT22;26635;-35.248;149.138;2023-09-19T01:51:34;26.60;53.30
39931;DHT22;26635;-35.248;149.138;2023-09-19T01:54:12;26.60;52.90
39931;DHT22;26635;-35.248;149.138;2023-09-19T01:57:05;26.70;52.90
39931;DHT22;26635;-35.248;149.138;2023-09-19T01:59:54;26.70;52.50
39931;DHT22;26635;-35.248;149.138;2023-09-19T02:02:28;26.70;52.70
39931;DHT22;26635;-35.248;149.138;2023-09-19T02:04:59;26.70;52.70
39931;DHT22;26635;-35.248;149.138;2023-09-19T02:07:30;26.80;52.70
39931;DHT22;26635;-35.248;149.138;2023-09-19T02:10:04;26.90;53.40
39931;DHT22;26635;-35.248;149.138;2023-09-19T02:12:35;27.00;53.40
39931;DHT22;26635;-35.248;149.138;2023-09-19T02:15:07;27.10;52.70
39931;DHT22;26635;-35.248;149.138;2023-09-19T02:17:37;27.20;51.80
39931;DHT22;26635;-35.248;149.138;2023-09-19T02:20:08;27.10;51.60
39931;DHT22;26635;-35.248;149.138;2023-09-19T02:22:44;27.10;52.30
39931;DHT22;26635;-35.248;149.138;2023-09-19T02:25:14;27.20;52.70
39931;DHT22;26635;-35.248;149.138;2023-09-19T02:27:45;27.20;51.70
39931;DHT22;26635;-35.248;149.138;2023-09-19T02:30:15;27.20;51.40
39931;DHT22;26635;-35.248;149.138;2023-09-19T02:32:47;27.30;52.00
39931;DHT22;26635;-35.248;149.138;2023-09-19T02:35:19;27.30;52.10
39931;DHT22;26635;-35.248;149.138;2023-09-19T02:37:51;27.30;51.40
39931;DHT22;26635;-35.248;149.138;2023-09-19T02:40:21;27.30;52.00
39931;DHT22;26635;-35.248;149.138;2023-09-19T02:42:55;27.30;51.90
39931;DHT22;26635;-35.248;149.138;2023-09-19T02:45:28;27.40;52.30
39931;DHT22;26635;-35.248;149.138;2023-09-19T02:47:59;27.50;53.00
39931;DHT22;26635;-35.248;149.138;2023-09-19T02:50:31;27.40;52.60
39931;DHT22;26635;-35.248;149.138;2023-09-19T02:53:02;27.40;52.00
39931;DHT22;26635;-35.248;149.138;2023-09-19T02:55:34;27.30;50.20
39931;DHT22;26635;-35.248;149.138;2023-09-19T02:58:08;27.20;50.40
39931;DHT22;26635;-35.248;149.138;2023-09-19T03:00:41;27.30;51.20
39931;DHT22;26635;-35.248;149.138;2023-09-19T03:03:16;27.30;50.90
39931;DHT22;26635;-35.248;149.138;2023-09-19T03:05:47;27.30;48.40
39931;DHT22;26635;-35.248;149.138;2023-09-19T03:08:20;27.20;48.60
39931;DHT22;26635;-35.248;149.138;2023-09-19T03:10:51;27.20;48.90
39931;DHT22;26635;-35.248;149.138;2023-09-19T03:13:22;27.10;49.00
39931;DHT22;26635;-35.248;149.138;2023-09-19T03:15:54;27.20;49.10
39931;DHT22;26635;-35.248;149.138;2023-09-19T03:18:26;27.20;48.60
39931;DHT22;26635;-35.248;149.138;2023-09-19T03:20:57;27.10;49.20
39931;DHT22;26635;-35.248;149.138;2023-09-19T03:23:30;27.10;49.70
39931;DHT22;26635;-35.248;149.138;2023-09-19T03:26:01;27.20;48.70
39931;DHT22;26635;-35.248;149.138;2023-09-19T03:28:34;27.20;48.50
39931;DHT22;26635;-35.248;149.138;2023-09-19T03:31:06;27.20;48.20
39931;DHT22;26635;-35.248;149.138;2023-09-19T03:33:36;27.30;49.70
39931;DHT22;26635;-35.248;149.138;2023-09-19T03:36:07;27.30;48.30
39931;DHT22;26635;-35.248;149.138;2023-09-19T03:38:38;27.20;48.10
39931;DHT22;26635;-35.248;149.138;2023-09-19T03:41:08;27.20;48.00
39931;DHT22;26635;-35.248;149.138;2023-09-19T03:43:39;27.20;48.10
39931;DHT22;26635;-35.248;149.138;2023-09-19T03:46:10;27.20;48.80
39931;DHT22;26635;-35.248;149.138;2023-09-19T03:48:44;27.20;48.50
39931;DHT22;26635;-35.248;149.138;2023-09-19T03:51:15;27.20;48.70
39931;DHT22;26635;-35.248;149.138;2023-09-19T03:53:45;27.20;49.00
39931;DHT22;26635;-35.248;149.138;2023-09-19T03:56:16;27.20;47.90
39931;DHT22;26635;-35.248;149.138;2023-09-19T03:58:46;27.20;48.80
39931;DHT22;26635;-35.248;149.138;2023-09-19T04:01:16;27.30;48.70
39931;DHT22;26635;-35.248;149.138;2023-09-19T04:03:48;27.40;47.60
39931;DHT22;26635;-35.248;149.138;2023-09-19T04:06:20;27.40;48.30
39931;DHT22;26635;-35.248;149.138;2023-09-19T04:08:50;27.20;47.70
39931;DHT22;26635;-35.248;149.138;2023-09-19T04:11:21;27.20;48.30
39931;DHT22;26635;-35.248;149.138;2023-09-19T04:13:51;27.20;48.10
39931;DHT22;26635;-35.248;149.138;2023-09-19T04:16:22;27.10;48.20
39931;DHT22;26635;-35.248;149.138;2023-09-19T04:18:52;27.00;48.40
39931;DHT22;26635;-35.248;149.138;2023-09-19T04:21:22;26.90;49.10
39931;DHT22;26635;-35.248;149.138;2023-09-19T04:23:53;26.90;49.70
39931;DHT22;26635;-35.248;149.138;2023-09-19T04:26:23;27.00;50.00
39931;DHT22;26635;-35.248;149.138;2023-09-19T04:28:56;26.90;48.40
39931;DHT22;26635;-35.248;149.138;2023-09-19T04:31:26;27.00;48.50
39931;DHT22;26635;-35.248;149.138;2023-09-19T04:33:57;27.00;48.50
39931;DHT22;26635;-35.248;149.138;2023-09-19T04:36:29;26.90;48.40
39931;DHT22;26635;-35.248;149.138;2023-09-19T04:39:03;26.90;49.20
39931;DHT22;26635;-35.248;149.138;2023-09-19T04:41:37;26.80;47.90
39931;DHT22;26635;-35.248;149.138;2023-09-19T04:44:10;26.70;48.20
39931;DHT22;26635;-35.248;149.138;2023-09-19T04:46:44;26.70;48.90
39931;DHT22;26635;-35.248;149.138;2023-09-19T04:49:16;26.60;49.00
39931;DHT22;26635;-35.248;149.138;2023-09-19T04:51:47;26.50;49.60
39931;DHT22;26635;-35.248;149.138;2023-09-19T04:54:19;26.50;49.80
39931;DHT22;26635;-35.248;149.138;2023-09-19T04:56:50;26.50;49.70
39931;DHT22;26635;-35.248;149.138;2023-09-19T04:59:20;26.50;49.30
39931;DHT22;26635;-35.248;149.138;2023-09-19T05:01:50;26.50;48.50
39931;DHT22;26635;-35.248;149.138;2023-09-19T05:04:21;26.40;49.30
39931;DHT22;26635;-35.248;149.138;2023-09-19T05:06:51;26.40;50.10
39931;DHT22;26635;-35.248;149.138;2023-09-19T05:09:23;26.50;50.10
39931;DHT22;26635;-35.248;149.138;2023-09-19T05:11:56;26.50;49.70
39931;DHT22;26635;-35.248;149.138;2023-09-19T05:14:32;26.60;49.70
39931;DHT22;26635;-35.248;149.138;2023-09-19T05:17:03;26.50;50.20
39931;DHT22;26635;-35.248;149.138;2023-09-19T05:19:34;26.40;50.20
39931;DHT22;26635;-35.248;149.138;2023-09-19T05:22:07;26.40;50.80
39931;DHT22;26635;-35.248;149.138;2023-09-19T05:24:39;26.30;50.50
39931;DHT22;26635;-35.248;149.138;2023-09-19T05:27:09;26.30;50.90
39931;DHT22;26635;-35.248;149.138;2023-09-19T05:29:40;26.30;51.00
39931;DHT22;26635;-35.248;149.138;2023-09-19T05:32:12;26.20;50.90
39931;DHT22;26635;-35.248;149.138;2023-09-19T05:34:43;26.20;51.40
39931;DHT22;26635;-35.248;149.138;2023-09-19T05:37:13;26.20;50.00
39931;DHT22;26635;-35.248;149.138;2023-09-19T05:39:46;26.10;50.50
39931;DHT22;26635;-35.248;149.138;2023-09-19T05:42:18;26.00;50.40
39931;DHT22;26635;-35.248;149.138;2023-09-19T05:44:48;26.00;51.00
39931;DHT22;26635;-35.248;149.138;2023-09-19T05:47:19;25.90;50.70
39931;DHT22;26635;-35.248;149.138;2023-09-19T05:49:52;25.80;51.30
39931;DHT22;26635;-35.248;149.138;2023-09-19T05:52:23;25.80;50.20
39931;DHT22;26635;-35.248;149.138;2023-09-19T05:54:53;25.80;50.20
39931;DHT22;26635;-35.248;149.138;2023-09-19T05:57:26;25.70;50.20
39931;DHT22;26635;-35.248;149.138;2023-09-19T05:59:57;25.70;49.70
39931;DHT22;26635;-35.248;149.138;2023-09-19T06:02:27;25.60;51.60
39931;DHT22;26635;-35.248;149.138;2023-09-19T06:05:00;25.50;50.60
39931;DHT22;26635;-35.248;149.138;2023-09-19T06:07:30;25.50;51.10
39931;DHT22;26635;-35.248;149.138;2023-09-19T06:10:06;25.40;50.80
39931;DHT22;26635;-35.248;149.138;2023-09-19T06:12:40;25.40;51.00
39931;DHT22;26635;-35.248;149.138;2023-09-19T06:15:11;25.30;51.70
39931;DHT22;26635;-35.248;149.138;2023-09-19T06:17:49;25.20;51.80
39931;DHT22;26635;-35.248;149.138;2023-09-19T06:20:21;25.20;51.50
39931;DHT22;26635;-35.248;149.138;2023-09-19T06:22:53;25.10;51.80
39931;DHT22;26635;-35.248;149.138;2023-09-19T06:25:23;25.10;51.90
39931;DHT22;26635;-35.248;149.138;2023-09-19T06:27:54;25.10;52.20
39931;DHT22;26635;-35.248;149.138;2023-09-19T06:30:27;25.10;51.80
39931;DHT22;26635;-35.248;149.138;2023-09-19T06:33:00;25.10;51.60
39931;DHT22;26635;-35.248;149.138;2023-09-19T06:35:33;25.00;51.60
39931;DHT22;26635;-35.248;149.138;2023-09-19T06:38:04;25.00;50.90
39931;DHT22;26635;-35.248;149.138;2023-09-19T06:40:35;24.90;50.70
39931;DHT22;26635;-35.248;149.138;2023-09-19T06:43:06;24.90;50.90
39931;DHT22;26635;-35.248;149.138;2023-09-19T06:45:37;24.90;51.40
39931;DHT22;26635;-35.248;149.138;2023-09-19T06:48:07;24.80;51.60
39931;DHT22;26635;-35.248;149.138;2023-09-19T06:50:42;24.70;52.00
39931;DHT22;26635;-35.248;149.138;2023-09-19T06:53:15;24.70;52.40
39931;DHT22;26635;-35.248;149.138;2023-09-19T06:55:48;24.60;52.30
39931;DHT22;26635;-35.248;149.138;2023-09-19T06:58:19;24.60;52.40
39931;DHT22;26635;-35.248;149.138;2023-09-19T07:00:51;24.50;53.00
39931;DHT22;26635;-35.248;149.138;2023-09-19T07:03:22;24.50;53.30
39931;DHT22;26635;-35.248;149.138;2023-09-19T07:05:57;24.40;53.80
39931;DHT22;26635;-35.248;149.138;2023-09-19T07:08:28;24.40;54.00
39931;DHT22;26635;-35.248;149.138;2023-09-19T07:11:19;24.30;54.10
39931;DHT22;26635;-35.248;149.138;2023-09-19T07:14:10;24.20;54.00
39931;DHT22;26635;-35.248;149.138;2023-09-19T07:16:59;24.20;54.30
39931;DHT22;26635;-35.248;149.138;2023-09-19T07:19:30;24.10;54.20
39931;DHT22;26635;-35.248;149.138;2023-09-19T07:22:01;24.00;54.40
39931;DHT22;26635;-35.248;149.138;2023-09-19T07:24:32;23.90;54.80
39931;DHT22;26635;-35.248;149.138;2023-09-19T07:27:02;23.80;54.80
39931;DHT22;26635;-35.248;149.138;2023-09-19T07:29:32;23.70;54.30
39931;DHT22;26635;-35.248;149.138;2023-09-19T07:32:03;23.70;53.80
39931;DHT22;26635;-35.248;149.138;2023-09-19T07:34:36;23.60;55.00
39931;DHT22;26635;-35.248;149.138;2023-09-19T07:37:09;23.50;54.90
39931;DHT22;26635;-35.248;149.138;2023-09-19T07:39:41;23.50;54.60
39931;DHT22;26635;-35.248;149.138;2023-09-19T07:42:11;23.40;54.00
39931;DHT22;26635;-35.248;149.138;2023-09-19T07:44:47;23.30;54.70
39931;DHT22;26635;-35.248;149.138;2023-09-19T07:47:21;23.20;54.60
39931;DHT22;26635;-35.248;149.138;2023-09-19T07:49:52;23.20;54.40
39931;DHT22;26635;-35.248;149.138;2023-09-19T07:52:24;23.10;54.50
39931;DHT22;26635;-35.248;149.138;2023-09-19T07:54:55;23.10;54.60
39931;DHT22;26635;-35.248;149.138;2023-09-19T07:57:27;23.00;54.40
39931;DHT22;26635;-35.248;149.138;2023-09-19T07:59:58;22.90;54.60
39931;DHT22;26635;-35.248;149.138;2023-09-19T08:02:34;22.90;54.70
39931;DHT22;26635;-35.248;149.138;2023-09-19T08:05:04;22.80;55.10
39931;DHT22;26635;-35.248;149.138;2023-09-19T08:07:43;22.70;54.90
39931;DHT22;26635;-35.248;149.138;2023-09-19T08:10:13;22.70;56.00
39931;DHT22;26635;-35.248;149.138;2023-09-19T08:12:46;22.70;54.90
39931;DHT22;26635;-35.248;149.138;2023-09-19T08:15:18;22.70;54.90
39931;DHT22;26635;-35.248;149.138;2023-09-19T08:17:49;22.60;54.80
39931;DHT22;26635;-35.248;149.138;2023-09-19T08:20:20;22.60;54.50
39931;DHT22;26635;-35.248;149.138;2023-09-19T08:22:52;22.60;54.30
39931;DHT22;26635;-35.248;149.138;2023-09-19T08:25:26;22.50;54.20
39931;DHT22;26635;-35.248;149.138;2023-09-19T08:27:58;22.50;54.40
39931;DHT22;26635;-35.248;149.138;2023-09-19T08:30:32;22.40;54.30
39931;DHT22;26635;-35.248;149.138;2023-09-19T08:33:04;22.40;53.90
39931;DHT22;26635;-35.248;149.138;2023-09-19T08:35:34;22.30;54.00
39931;DHT22;26635;-35.248;149.138;2023-09-19T08:38:05;22.30;54.00
39931;DHT22;26635;-35.248;149.138;2023-09-19T08:40:39;22.30;54.00
39931;DHT22;26635;-35.248;149.138;2023-09-19T08:43:11;22.20;53.70
39931;DHT22;26635;-35.248;149.138;2023-09-19T08:45:42;22.20;53.90
39931;DHT22;26635;-35.248;149.138;2023-09-19T08:48:30;22.20;54.00
39931;DHT22;26635;-35.248;149.138;2023-09-19T08:51:10;22.10;54.20
39931;DHT22;26635;-35.248;149.138;2023-09-19T08:54:06;22.10;54.00
39931;DHT22;26635;-35.248;149.138;2023-09-19T08:56:37;22.00;54.70
39931;DHT22;26635;-35.248;149.138;2023-09-19T08:59:09;22.00;54.70
39931;DHT22;26635;-35.248;149.138;2023-09-19T09:01:41;22.00;54.40
39931;DHT22;26635;-35.248;149.138;2023-09-19T09:04:13;22.00;53.90
39931;DHT22;26635;-35.248;149.138;2023-09-19T09:06:44;21.90;54.60
39931;DHT22;26635;-35.248;149.138;2023-09-19T09:09:21;21.90;54.40
39931;DHT22;26635;-35.248;149.138;2023-09-19T09:11:51;21.90;54.20
39931;DHT22;26635;-35.248;149.138;2023-09-19T09:14:24;21.80;54.50
39931;DHT22;26635;-35.248;149.138;2023-09-19T09:16:55;21.80;54.80
39931;DHT22;26635;-35.248;149.138;2023-09-19T09:19:30;21.70;54.60
39931;DHT22;26635;-35.248;149.138;2023-09-19T09:22:08;21.70;54.90
39931;DHT22;26635;-35.248;149.138;2023-09-19T09:24:52;21.60;54.30
39931;DHT22;26635;-35.248;149.138;2023-09-19T09:27:35;21.60;54.40
39931;DHT22;26635;-35.248;149.138;2023-09-19T09:30:05;21.50;55.00
39931;DHT22;26635;-35.248;149.138;2023-09-19T09:32:36;21.40;55.50
39931;DHT22;26635;-35.248;149.138;2023-09-19T09:35:28;21.30;55.60
39931;DHT22;26635;-35.248;149.138;2023-09-19T09:38:02;21.20;56.00
39931;DHT22;26635;-35.248;149.138;2023-09-19T09:40:50;21.10;56.30
39931;DHT22;26635;-35.248;149.138;2023-09-19T09:43:37;21.00;57.40
39931;DHT22;26635;-35.248;149.138;2023-09-19T09:46:15;20.90;56.80
39931;DHT22;26635;-35.248;149.138;2023-09-19T09:48:56;20.70;58.70
39931;DHT22;26635;-35.248;149.138;2023-09-19T09:52:06;20.70;57.80
39931;DHT22;26635;-35.248;149.138;2023-09-19T09:55:04;20.60;57.50
39931;DHT22;26635;-35.248;149.138;2023-09-19T09:57:38;20.50;57.90
39931;DHT22;26635;-35.248;149.138;2023-09-19T10:00:11;20.50;58.80
39931;DHT22;26635;-35.248;149.138;2023-09-19T10:02:42;20.40;58.80
39931;DHT22;26635;-35.248;149.138;2023-09-19T10:05:17;20.30;59.10
39931;DHT22;26635;-35.248;149.138;2023-09-19T10:07:51;20.20;58.80
39931;DHT22;26635;-35.248;149.138;2023-09-19T10:10:57;20.20;60.40
39931;DHT22;26635;-35.248;149.138;2023-09-19T10:13:54;20.10;60.10
39931;DHT22;26635;-35.248;149.138;2023-09-19T10:16:48;20.00;60.20
39931;DHT22;26635;-35.248;149.138;2023-09-19T10:19:30;19.90;60.00
39931;DHT22;26635;-35.248;149.138;2023-09-19T10:22:05;19.90;60.40
39931;DHT22;26635;-35.248;149.138;2023-09-19T10:24:39;19.80;60.70
39931;DHT22;26635;-35.248;149.138;2023-09-19T10:27:29;19.70;61.10
39931;DHT22;26635;-35.248;149.138;2023-09-19T10:30:08;19.70;61.50
39931;DHT22;26635;-35.248;149.138;2023-09-19T10:32:41;19.60;61.70
39931;DHT22;26635;-35.248;149.138;2023-09-19T10:35:12;19.50;62.30
39931;DHT22;26635;-35.248;149.138;2023-09-19T10:37:46;19.50;62.20
39931;DHT22;26635;-35.248;149.138;2023-09-19T10:40:20;19.50;61.90
39931;DHT22;26635;-35.248;149.138;2023-09-19T10:42:54;19.40;62.10
39931;DHT22;26635;-35.248;149.138;2023-09-19T10:45:30;19.40;62.10
39931;DHT22;26635;-35.248;149.138;2023-09-19T10:48:05;19.40;62.10
39931;DHT22;26635;-35.248;149.138;2023-09-19T10:53:17;19.30;62.50
39931;DHT22;26635;-35.248;149.138;2023-09-19T10:55:54;19.30;62.60
39931;DHT22;26635;-35.248;149.138;2023-09-19T10:58:29;19.30;62.70
39931;DHT22;26635;-35.248;149.138;2023-09-19T11:01:06;19.30;62.90
39931;DHT22;26635;-35.248;149.138;2023-09-19T11:03:43;19.30;62.40
39931;DHT22;26635;-35.248;149.138;2023-09-19T11:06:18;19.30;62.60
39931;DHT22;26635;-35.248;149.138;2023-09-19T11:09:02;19.20;62.40
39931;DHT22;26635;-35.248;149.138;2023-09-19T11:11:45;19.20;61.90
39931;DHT22;26635;-35.248;149.138;2023-09-19T11:30:52;19.00;62.10
39931;DHT22;26635;-35.248;149.138;2023-09-19T11:33:28;19.00;62.80
39931;DHT22;26635;-35.248;149.138;2023-09-19T11:36:12;19.00;62.60
39931;DHT22;26635;-35.248;149.138;2023-09-19T11:46:53;19.20;60.20
39931;DHT22;26635;-35.248;149.138;2023-09-19T11:49:30;19.30;60.40
39931;DHT22;26635;-35.248;149.138;2023-09-19T11:52:04;19.30;60.50
39931;DHT22;26635;-35.248;149.138;2023-09-19T11:54:40;19.30;60.40
39931;DHT22;26635;-35.248;149.138;2023-09-19T11:57:20;19.40;60.40
39931;DHT22;26635;-35.248;149.138;2023-09-19T11:59:51;19.40;60.50
39931;DHT22;26635;-35.248;149.138;2023-09-19T12:02:39;19.30;60.20
39931;DHT22;26635;-35.248;149.138;2023-09-19T12:05:12;19.30;60.70
39931;DHT22;26635;-35.248;149.138;2023-09-19T12:07:45;19.20;61.00
39931;DHT22;26635;-35.248;149.138;2023-09-19T12:10:17;19.20;60.80
39931;DHT22;26635;-35.248;149.138;2023-09-19T12:12:53;19.20;60.80
39931;DHT22;26635;-35.248;149.138;2023-09-19T12:15:27;19.20;61.10
39931;DHT22;26635;-35.248;149.138;2023-09-19T12:18:04;19.10;60.70
39931;DHT22;26635;-35.248;149.138;2023-09-19T12:20:45;19.10;61.20
39931;DHT22;26635;-35.248;149.138;2023-09-19T12:23:21;19.00;61.30
39931;DHT22;26635;-35.248;149.138;2023-09-19T12:25:54;19.00;61.20
39931;DHT22;26635;-35.248;149.138;2023-09-19T12:28:27;19.00;60.60
39931;DHT22;26635;-35.248;149.138;2023-09-19T12:31:09;19.00;60.20
39931;DHT22;26635;-35.248;149.138;2023-09-19T12:33:41;19.00;60.80
39931;DHT22;26635;-35.248;149.138;2023-09-19T12:36:22;19.00;61.20
39931;DHT22;26635;-35.248;149.138;2023-09-19T12:39:00;19.00;60.70
39931;DHT22;26635;-35.248;149.138;2023-09-19T12:41:32;19.00;60.30
39931;DHT22;26635;-35.248;149.138;2023-09-19T12:44:03;18.90;60.80
39931;DHT22;26635;-35.248;149.138;2023-09-19T12:46:39;18.90;61.20
39931;DHT22;26635;-35.248;149.138;2023-09-19T12:49:20;18.90;61.30
39931;DHT22;26635;-35.248;149.138;2023-09-19T12:51:55;18.90;60.70
39931;DHT22;26635;-35.248;149.138;2023-09-19T12:54:40;18.80;61.20
39931;DHT22;26635;-35.248;149.138;2023-09-19T12:57:26;18.70;61.10
39931;DHT22;26635;-35.248;149.138;2023-09-19T12:59:57;18.70;61.00
39931;DHT22;26635;-35.248;149.138;2023-09-19T13:02:28;18.70;60.80
39931;DHT22;26635;-35.248;149.138;2023-09-19T13:04:59;18.60;61.10
39931;DHT22;26635;-35.248;149.138;2023-09-19T13:07:44;18.60;61.40
39931;DHT22;26635;-35.248;149.138;2023-09-19T13:10:19;18.50;61.20
39931;DHT22;26635;-35.248;149.138;2023-09-19T13:12:54;18.50;60.60
39931;DHT22;26635;-35.248;149.138;2023-09-19T13:15:25;18.60;61.00
39931;DHT22;26635;-35.248;149.138;2023-09-19T13:18:11;18.50;62.30
39931;DHT22;26635;-35.248;149.138;2023-09-19T13:20:44;18.50;60.90
39931;DHT22;26635;-35.248;149.138;2023-09-19T13:23:34;18.40;60.80
39931;DHT22;26635;-35.248;149.138;2023-09-19T13:26:07;18.40;61.10
39931;DHT22;26635;-35.248;149.138;2023-09-19T13:28:40;18.40;61.50
39931;DHT22;26635;-35.248;149.138;2023-09-19T13:31:11;18.30;61.00
39931;DHT22;26635;-35.248;149.138;2023-09-19T13:33:48;18.30;61.70
39931;DHT22;26635;-35.248;149.138;2023-09-19T13:36:20;18.20;61.10
39931;DHT22;26635;-35.248;149.138;2023-09-19T13:38:51;18.20;61.30
39931;DHT22;26635;-35.248;149.138;2023-09-19T13:41:24;18.20;61.50
39931;DHT22;26635;-35.248;149.138;2023-09-19T13:43:56;18.20;61.00
39931;DHT22;26635;-35.248;149.138;2023-09-19T13:46:28;18.20;62.00
39931;DHT22;26635;-35.248;149.138;2023-09-19T13:49:01;18.20;61.20
39931;DHT22;26635;-35.248;149.138;2023-09-19T13:51:35;18.10;61.70
39931;DHT22;26635;-35.248;149.138;2023-09-19T13:54:06;18.10;61.20
39931;DHT22;26635;-35.248;149.138;2023-09-19T13:56:38;18.10;61.30
39931;DHT22;26635;-35.248;149.138;2023-09-19T13:59:09;18.10;60.90
39931;DHT22;26635;-35.248;149.138;2023-09-19T14:01:39;18.10;61.20
39931;DHT22;26635;-35.248;149.138;2023-09-19T14:04:13;18.10;60.80
39931;DHT22;26635;-35.248;149.138;2023-09-19T14:06:45;18.10;61.20
39931;DHT22;26635;-35.248;149.138;2023-09-19T14:09:16;18.10;61.40
39931;DHT22;26635;-35.248;149.138;2023-09-19T14:11:49;18.10;61.20
39931;DHT22;26635;-35.248;149.138;2023-09-19T14:14:22;18.10;60.70
39931;DHT22;26635;-35.248;149.138;2023-09-19T14:16:53;18.00;60.90
39931;DHT22;26635;-35.248;149.138;2023-09-19T14:19:25;18.00;61.20
39931;DHT22;26635;-35.248;149.138;2023-09-19T14:21:56;17.90;61.10
39931;DHT22;26635;-35.248;149.138;2023-09-19T14:24:26;17.90;61.40
39931;DHT22;26635;-35.248;149.138;2023-09-19T14:26:59;17.80;61.00
39931;DHT22;26635;-35.248;149.138;2023-09-19T14:29:30;17.80;61.40
39931;DHT22;26635;-35.248;149.138;2023-09-19T14:32:02;17.80;61.60
39931;DHT22;26635;-35.248;149.138;2023-09-19T14:34:33;17.80;61.00
39931;DHT22;26635;-35.248;149.138;2023-09-19T14:37:06;17.80;61.20
39931;DHT22;26635;-35.248;149.138;2023-09-19T14:39:37;17.70;61.40
39931;DHT22;26635;-35.248;149.138;2023-09-19T14:42:11;17.70;61.50
39931;DHT22;26635;-35.248;149.138;2023-09-19T14:44:45;17.70;61.00
39931;DHT22;26635;-35.248;149.138;2023-09-19T14:47:18;17.70;60.80
39931;DHT22;26635;-35.248;149.138;2023-09-19T14:49:52;17.70;60.50
39931;DHT22;26635;-35.248;149.138;2023-09-19T14:52:22;17.70;60.20
39931;DHT22;26635;-35.248;149.138;2023-09-19T14:54:55;17.70;61.00
39931;DHT22;26635;-35.248;149.138;2023-09-19T14:57:26;17.60;60.30
39931;DHT22;26635;-35.248;149.138;2023-09-19T14:59:57;17.60;61.00
39931;DHT22;26635;-35.248;149.138;2023-09-19T15:02:28;17.60;61.50
39931;DHT22;26635;-35.248;149.138;2023-09-19T15:05:00;17.50;60.60
39931;DHT22;26635;-35.248;149.138;2023-09-19T15:07:31;17.50;60.40
39931;DHT22;26635;-35.248;149.138;2023-09-19T15:10:02;17.50;59.80
39931;DHT22;26635;-35.248;149.138;2023-09-19T15:12:34;17.50;60.00
39931;DHT22;26635;-35.248;149.138;2023-09-19T15:15:06;17.50;60.60
39931;DHT22;26635;-35.248;149.138;2023-09-19T15:17:40;17.50;60.30
39931;DHT22;26635;-35.248;149.138;2023-09-19T15:20:11;17.50;60.40
39931;DHT22;26635;-35.248;149.138;2023-09-19T15:22:46;17.40;60.00
39931;DHT22;26635;-35.248;149.138;2023-09-19T15:25:18;17.50;59.50
39931;DHT22;26635;-35.248;149.138;2023-09-19T15:27:49;17.50;60.00
39931;DHT22;26635;-35.248;149.138;2023-09-19T15:30:20;17.50;59.70
39931;DHT22;26635;-35.248;149.138;2023-09-19T15:32:51;17.50;59.40
39931;DHT22;26635;-35.248;149.138;2023-09-19T15:35:27;17.50;59.20
39931;DHT22;26635;-35.248;149.138;2023-09-19T15:37:58;17.50;60.10
39931;DHT22;26635;-35.248;149.138;2023-09-19T15:40:30;17.50;59.20
39931;DHT22;26635;-35.248;149.138;2023-09-19T15:43:00;17.50;60.00
39931;DHT22;26635;-35.248;149.138;2023-09-19T15:45:31;17.50;58.30
39931;DHT22;26635;-35.248;149.138;2023-09-19T15:48:06;17.50;59.10
39931;DHT22;26635;-35.248;149.138;2023-09-19T15:50:38;17.50;58.80
39931;DHT22;26635;-35.248;149.138;2023-09-19T15:53:12;17.50;58.20
39931;DHT22;26635;-35.248;149.138;2023-09-19T15:55:43;17.50;58.10
39931;DHT22;26635;-35.248;149.138;2023-09-19T15:58:15;17.40;57.90
39931;DHT22;26635;-35.248;149.138;2023-09-19T16:00:46;17.50;58.00
39931;DHT22;26635;-35.248;149.138;2023-09-19T16:03:16;17.50;57.80
39931;DHT22;26635;-35.248;149.138;2023-09-19T16:05:47;17.50;57.70
39931;DHT22;26635;-35.248;149.138;2023-09-19T16:08:21;17.40;58.60
39931;DHT22;26635;-35.248;149.138;2023-09-19T16:10:54;17.40;58.40